createdAt,value
2023-04-15T00:00:31.000Z,6.48
2023-04-15T00:01:31.000Z,6.47
2023-04-15T00:02:31.000Z,6.48
2023-04-15T00:03:31.000Z,6.46
2023-04-15T00:04:31.000Z,6.47
2023-04-15T00:05:31.000Z,6.44
2023-04-15T00:06:32.000Z,6.44
2023-04-15T00:07:32.000Z,6.51
2023-04-15T00:08:32.000Z,6.44
2023-04-15T00:09:32.000Z,6.46
2023-04-15T00:10:32.000Z,6.40
2023-04-15T00:11:32.000Z,6.46
2023-04-15T00:12:32.000Z,6.43
2023-04-15T00:13:32.000Z,6.44
2023-04-15T00:14:32.000Z,6.46
2023-04-15T00:15:32.000Z,6.43
2023-04-15T00:16:32.000Z,6.44
2023-04-15T00:17:32.000Z,6.43
2023-04-15T00:18:32.000Z,6.43
2023-04-15T00:19:32.000Z,6.46
2023-04-15T00:20:32.000Z,6.41
2023-04-15T00:21:32.000Z,6.43
2023-04-15T00:22:32.000Z,6.41
2023-04-15T00:23:32.000Z,6.40
2023-04-15T00:24:32.000Z,6.43
2023-04-15T00:25:32.000Z,6.40
2023-04-15T00:26:32.000Z,6.40
2023-04-15T00:27:32.000Z,6.46
2023-04-15T00:28:32.000Z,6.44
2023-04-15T00:29:32.000Z,6.44
2023-04-15T00:30:32.000Z,6.44
2023-04-15T00:31:32.000Z,6.41
2023-04-15T00:32:32.000Z,6.44
2023-04-15T00:33:32.000Z,6.43
2023-04-15T00:34:32.000Z,6.48
2023-04-15T00:35:32.000Z,6.43
2023-04-15T00:36:32.000Z,6.44
2023-04-15T00:37:32.000Z,6.41
2023-04-15T00:38:32.000Z,6.43
2023-04-15T00:39:32.000Z,6.38
2023-04-15T00:40:32.000Z,6.33
2023-04-15T00:41:32.000Z,6.40
2023-04-15T00:42:32.000Z,6.36
2023-04-15T00:43:32.000Z,6.33
2023-04-15T00:44:32.000Z,6.35
2023-04-15T00:45:32.000Z,6.33
2023-04-15T00:46:32.000Z,6.36
2023-04-15T00:47:32.000Z,6.32
2023-04-15T00:48:32.000Z,6.32
2023-04-15T00:49:32.000Z,6.32
2023-04-15T00:50:32.000Z,6.32
2023-04-15T00:51:33.000Z,6.33
2023-04-15T00:52:33.000Z,6.30
2023-04-15T00:53:33.000Z,6.30
2023-04-15T00:54:33.000Z,6.32
2023-04-15T00:55:33.000Z,6.35
2023-04-15T00:56:33.000Z,6.35
2023-04-15T00:57:33.000Z,6.38
2023-04-15T00:58:33.000Z,6.36
2023-04-15T00:59:33.000Z,6.36
2023-04-15T01:00:33.000Z,6.32
2023-04-15T01:01:33.000Z,6.29
2023-04-15T01:02:33.000Z,6.32
2023-04-15T01:03:33.000Z,6.33
2023-04-15T01:04:33.000Z,6.32
2023-04-15T01:05:33.000Z,6.36
2023-04-15T01:06:33.000Z,6.38
2023-04-15T01:07:33.000Z,6.38
2023-04-15T01:08:33.000Z,6.35
2023-04-15T01:09:33.000Z,6.35
2023-04-15T01:10:33.000Z,6.38
2023-04-15T01:11:33.000Z,6.35
2023-04-15T01:12:33.000Z,6.40
2023-04-15T01:13:33.000Z,6.38
2023-04-15T01:14:33.000Z,6.38
2023-04-15T01:15:33.000Z,6.40
2023-04-15T01:16:33.000Z,6.40
2023-04-15T01:17:33.000Z,6.36
2023-04-15T01:18:33.000Z,6.36
2023-04-15T01:19:33.000Z,6.35
2023-04-15T01:20:33.000Z,6.38
2023-04-15T01:21:33.000Z,6.33
2023-04-15T01:22:33.000Z,6.40
2023-04-15T01:23:33.000Z,6.38
2023-04-15T01:24:33.000Z,6.33
2023-04-15T01:25:33.000Z,6.38
2023-04-15T01:26:33.000Z,6.38
2023-04-15T01:27:33.000Z,6.38
2023-04-15T01:28:33.000Z,6.33
2023-04-15T01:29:33.000Z,6.33
2023-04-15T01:30:33.000Z,6.36
2023-04-15T01:31:33.000Z,6.32
2023-04-15T01:32:33.000Z,6.33
2023-04-15T01:33:33.000Z,6.30
2023-04-15T01:34:33.000Z,6.32
2023-04-15T01:35:33.000Z,6.32
2023-04-15T01:36:33.000Z,6.32
2023-04-15T01:37:33.000Z,6.33
2023-04-15T01:38:33.000Z,6.33
2023-04-15T01:39:34.000Z,6.30
2023-04-15T01:40:34.000Z,6.32
2023-04-15T01:41:34.000Z,6.30
2023-04-15T01:42:34.000Z,6.30
2023-04-15T01:43:34.000Z,6.30
2023-04-15T01:44:34.000Z,6.32
2023-04-15T01:45:34.000Z,6.32
2023-04-15T01:46:34.000Z,6.33
2023-04-15T01:47:34.000Z,6.28
2023-04-15T01:48:34.000Z,6.33
2023-04-15T01:49:34.000Z,6.29
2023-04-15T01:50:34.000Z,6.35
2023-04-15T01:51:34.000Z,6.33
2023-04-15T01:52:34.000Z,6.32
2023-04-15T01:53:34.000Z,6.30
2023-04-15T01:54:34.000Z,6.32
2023-04-15T01:55:34.000Z,6.30
2023-04-15T01:56:34.000Z,6.29
2023-04-15T01:57:34.000Z,6.32
2023-04-15T01:58:34.000Z,6.29
2023-04-15T01:59:34.000Z,6.25
2023-04-15T02:00:34.000Z,6.28
2023-04-15T02:01:34.000Z,6.26
2023-04-15T02:02:34.000Z,6.28
2023-04-15T02:03:34.000Z,6.29
2023-04-15T02:04:34.000Z,6.22
2023-04-15T02:05:34.000Z,6.21
2023-04-15T02:06:34.000Z,6.25
2023-04-15T02:07:34.000Z,6.29
2023-04-15T02:08:34.000Z,6.21
2023-04-15T02:09:34.000Z,6.25
2023-04-15T02:10:34.000Z,6.26
2023-04-15T02:11:34.000Z,6.25
2023-04-15T02:12:34.000Z,6.19
2023-04-15T02:13:34.000Z,6.26
2023-04-15T02:14:34.000Z,6.25
2023-04-15T02:15:34.000Z,6.19
2023-04-15T02:16:34.000Z,6.22
2023-04-15T02:17:34.000Z,6.19
2023-04-15T02:18:35.000Z,6.18
2023-04-15T02:19:35.000Z,6.14
2023-04-15T02:20:35.000Z,6.18
2023-04-15T02:21:35.000Z,6.19
2023-04-15T02:22:35.000Z,6.19
2023-04-15T02:23:35.000Z,6.18
2023-04-15T02:24:35.000Z,6.16
2023-04-15T02:25:35.000Z,6.19
2023-04-15T02:26:35.000Z,6.19
2023-04-15T02:27:35.000Z,6.22
2023-04-15T02:28:35.000Z,6.26
2023-04-15T02:29:35.000Z,6.19
2023-04-15T02:30:35.000Z,6.25
2023-04-15T02:31:35.000Z,6.22
2023-04-15T02:32:35.000Z,6.22
2023-04-15T02:33:35.000Z,6.22
2023-04-15T02:34:35.000Z,6.19
2023-04-15T02:35:35.000Z,6.25
2023-04-15T02:36:35.000Z,6.21
2023-04-15T02:37:35.000Z,6.26
2023-04-15T02:38:35.000Z,6.19
2023-04-15T02:39:35.000Z,6.22
2023-04-15T02:40:35.000Z,6.22
2023-04-15T02:41:35.000Z,6.18
2023-04-15T02:42:35.000Z,6.14
2023-04-15T02:43:35.000Z,6.18
2023-04-15T02:44:35.000Z,6.16
2023-04-15T02:45:35.000Z,6.16
2023-04-15T02:46:35.000Z,6.18
2023-04-15T02:47:35.000Z,6.18
2023-04-15T02:48:35.000Z,6.14
2023-04-15T02:49:35.000Z,6.18
2023-04-15T02:50:36.000Z,6.16
2023-04-15T02:51:36.000Z,6.18
2023-04-15T02:52:36.000Z,6.14
2023-04-15T02:53:36.000Z,6.14
2023-04-15T02:54:36.000Z,6.16
2023-04-15T02:55:36.000Z,6.19
2023-04-15T02:56:36.000Z,6.22
2023-04-15T02:57:36.000Z,6.19
2023-04-15T02:58:36.000Z,6.16
2023-04-15T02:59:36.000Z,6.16
2023-04-15T03:00:36.000Z,6.21
2023-04-15T03:01:36.000Z,6.16
2023-04-15T03:02:36.000Z,6.16
2023-04-15T03:03:36.000Z,6.13
2023-04-15T03:04:36.000Z,6.19
2023-04-15T03:05:36.000Z,6.14
2023-04-15T03:06:36.000Z,6.18
2023-04-15T03:07:36.000Z,6.19
2023-04-15T03:08:36.000Z,6.18
2023-04-15T03:09:36.000Z,6.16
2023-04-15T03:10:36.000Z,6.16
2023-04-15T03:11:36.000Z,6.19
2023-04-15T03:12:36.000Z,6.16
2023-04-15T03:13:36.000Z,6.19
2023-04-15T03:14:36.000Z,6.25
2023-04-15T03:15:36.000Z,6.22
2023-04-15T03:16:36.000Z,6.21
2023-04-15T03:17:36.000Z,6.18
2023-04-15T03:18:36.000Z,6.22
2023-04-15T03:19:36.000Z,6.19
2023-04-15T03:20:36.000Z,6.19
2023-04-15T03:21:36.000Z,6.21
2023-04-15T03:22:36.000Z,6.22
2023-04-15T03:23:36.000Z,6.18
2023-04-15T03:24:36.000Z,6.14
2023-04-15T03:25:36.000Z,6.18
2023-04-15T03:26:36.000Z,6.19
2023-04-15T03:27:36.000Z,6.16
2023-04-15T03:28:37.000Z,6.19
2023-04-15T03:29:37.000Z,6.18
2023-04-15T03:30:37.000Z,6.19
2023-04-15T03:31:37.000Z,6.16
2023-04-15T03:32:37.000Z,6.19
2023-04-15T03:33:37.000Z,6.21
2023-04-15T03:34:37.000Z,6.18
2023-04-15T03:35:37.000Z,6.22
2023-04-15T03:36:37.000Z,6.19
2023-04-15T03:37:37.000Z,6.19
2023-04-15T03:38:37.000Z,6.22
2023-04-15T03:39:37.000Z,6.19
2023-04-15T03:40:37.000Z,6.25
2023-04-15T03:41:37.000Z,6.19
2023-04-15T03:42:37.000Z,6.13
2023-04-15T03:43:37.000Z,6.18
2023-04-15T03:44:37.000Z,6.19
2023-04-15T03:45:37.000Z,6.19
2023-04-15T03:46:37.000Z,6.19
2023-04-15T03:47:37.000Z,6.19
2023-04-15T03:48:37.000Z,6.18
2023-04-15T03:49:37.000Z,6.14
2023-04-15T03:50:37.000Z,6.21
2023-04-15T03:51:37.000Z,6.19
2023-04-15T03:52:37.000Z,6.16
2023-04-15T03:53:37.000Z,6.19
2023-04-15T03:54:37.000Z,6.14
2023-04-15T03:55:37.000Z,6.18
2023-04-15T03:56:37.000Z,6.19
2023-04-15T03:57:37.000Z,6.18
2023-04-15T03:58:37.000Z,6.14
2023-04-15T03:59:37.000Z,6.18
2023-04-15T04:00:37.000Z,6.21
2023-04-15T04:01:37.000Z,6.18
2023-04-15T04:02:37.000Z,6.19
2023-04-15T04:03:37.000Z,6.18
2023-04-15T04:04:37.000Z,6.14
2023-04-15T04:05:37.000Z,6.21
2023-04-15T04:06:38.000Z,6.18
2023-04-15T04:07:38.000Z,6.19
2023-04-15T04:08:38.000Z,6.16
2023-04-15T04:09:38.000Z,6.14
2023-04-15T04:10:38.000Z,6.18
2023-04-15T04:11:38.000Z,6.19
2023-04-15T04:12:38.000Z,6.19
2023-04-15T04:13:38.000Z,6.19
2023-04-15T04:14:38.000Z,6.25
2023-04-15T04:15:38.000Z,6.28
2023-04-15T04:16:38.000Z,6.21
2023-04-15T04:17:38.000Z,6.21
2023-04-15T04:18:38.000Z,6.21
2023-04-15T04:19:38.000Z,6.25
2023-04-15T04:20:38.000Z,6.22
2023-04-15T04:21:38.000Z,6.25
2023-04-15T04:22:38.000Z,6.25
2023-04-15T04:23:38.000Z,6.28
2023-04-15T04:24:38.000Z,6.29
2023-04-15T04:25:38.000Z,6.29
2023-04-15T04:26:38.000Z,6.26
2023-04-15T04:27:38.000Z,6.22
2023-04-15T04:28:38.000Z,6.28
2023-04-15T04:29:38.000Z,6.26
2023-04-15T04:30:38.000Z,6.26
2023-04-15T04:31:38.000Z,6.26
2023-04-15T04:32:38.000Z,6.28
2023-04-15T04:33:38.000Z,6.26
2023-04-15T04:34:38.000Z,6.26
2023-04-15T04:35:38.000Z,6.30
2023-04-15T04:36:38.000Z,6.28
2023-04-15T04:37:38.000Z,6.28
2023-04-15T04:38:38.000Z,6.29
2023-04-15T04:39:38.000Z,6.30
2023-04-15T04:40:38.000Z,6.29
2023-04-15T04:41:39.000Z,6.36
2023-04-15T04:42:39.000Z,6.30
2023-04-15T04:43:39.000Z,6.29
2023-04-15T04:44:39.000Z,6.28
2023-04-15T04:45:39.000Z,6.33
2023-04-15T04:46:39.000Z,6.32
2023-04-15T04:47:39.000Z,6.33
2023-04-15T04:48:39.000Z,6.30
2023-04-15T04:49:39.000Z,6.32
2023-04-15T04:50:39.000Z,6.33
2023-04-15T04:51:39.000Z,6.33
2023-04-15T04:52:39.000Z,6.30
2023-04-15T04:53:39.000Z,6.33
2023-04-15T04:54:39.000Z,6.33
2023-04-15T04:55:39.000Z,6.36
2023-04-15T04:56:39.000Z,6.36
2023-04-15T04:57:39.000Z,6.36
2023-04-15T04:58:39.000Z,6.30
2023-04-15T04:59:39.000Z,6.33
2023-04-15T05:00:39.000Z,6.35
2023-04-15T05:01:39.000Z,6.36
2023-04-15T05:02:39.000Z,6.36
2023-04-15T05:03:39.000Z,6.38
2023-04-15T05:04:39.000Z,6.36
2023-04-15T05:05:39.000Z,6.36
2023-04-15T05:06:39.000Z,6.38
2023-04-15T05:07:39.000Z,6.35
2023-04-15T05:08:39.000Z,6.36
2023-04-15T05:09:39.000Z,6.33
2023-04-15T05:10:39.000Z,6.36
2023-04-15T05:11:39.000Z,6.33
2023-04-15T05:12:39.000Z,6.43
2023-04-15T05:13:39.000Z,6.40
2023-04-15T05:14:39.000Z,6.46
2023-04-15T05:15:39.000Z,6.38
2023-04-15T05:16:39.000Z,6.40
2023-04-15T05:17:39.000Z,6.41
2023-04-15T05:18:40.000Z,6.41
2023-04-15T05:19:40.000Z,6.43
2023-04-15T05:20:40.000Z,6.43
2023-04-15T05:21:40.000Z,6.43
2023-04-15T05:22:40.000Z,6.43
2023-04-15T05:23:40.000Z,6.48
2023-04-15T05:24:40.000Z,6.44
2023-04-15T05:25:40.000Z,6.41
2023-04-15T05:26:40.000Z,6.46
2023-04-15T05:27:40.000Z,6.46
2023-04-15T05:28:40.000Z,6.44
2023-04-15T05:29:40.000Z,6.44
2023-04-15T05:30:40.000Z,6.43
2023-04-15T05:31:40.000Z,6.47
2023-04-15T05:32:40.000Z,6.50
2023-04-15T05:33:40.000Z,6.44
2023-04-15T05:34:40.000Z,6.50
2023-04-15T05:35:40.000Z,6.48
2023-04-15T05:36:40.000Z,6.48
2023-04-15T05:37:40.000Z,6.48
2023-04-15T05:38:40.000Z,6.51
2023-04-15T05:39:40.000Z,6.51
2023-04-15T05:40:40.000Z,6.51
2023-04-15T05:41:40.000Z,6.51
2023-04-15T05:42:40.000Z,6.53
2023-04-15T05:43:40.000Z,6.50
2023-04-15T05:44:40.000Z,6.48
2023-04-15T05:45:40.000Z,6.53
2023-04-15T05:46:40.000Z,6.54
2023-04-15T05:47:40.000Z,6.53
2023-04-15T05:48:40.000Z,6.54
2023-04-15T05:49:40.000Z,6.53
2023-04-15T05:50:40.000Z,6.56
2023-04-15T05:51:40.000Z,6.56
2023-04-15T05:52:40.000Z,6.58
2023-04-15T05:53:41.000Z,6.54
2023-04-15T05:54:41.000Z,6.59
2023-04-15T05:55:41.000Z,6.61
2023-04-15T05:56:41.000Z,6.61
2023-04-15T05:57:41.000Z,6.56
2023-04-15T05:58:41.000Z,6.62
2023-04-15T05:59:41.000Z,6.58
2023-04-15T06:00:41.000Z,6.61
2023-04-15T06:01:41.000Z,6.62
2023-04-15T06:02:41.000Z,6.62
2023-04-15T06:03:41.000Z,6.63
2023-04-15T06:04:41.000Z,6.63
2023-04-15T06:05:41.000Z,6.65
2023-04-15T06:06:41.000Z,6.65
2023-04-15T06:07:41.000Z,6.62
2023-04-15T06:08:41.000Z,6.59
2023-04-15T06:09:41.000Z,6.63
2023-04-15T06:10:41.000Z,6.68
2023-04-15T06:11:41.000Z,6.69
2023-04-15T06:12:41.000Z,6.71
2023-04-15T06:13:41.000Z,6.69
2023-04-15T06:14:41.000Z,6.69
2023-04-15T06:15:41.000Z,6.68
2023-04-15T06:16:41.000Z,6.71
2023-04-15T06:29:17.000Z,6.76
2023-04-15T06:29:17.000Z,6.77
2023-04-15T06:30:17.000Z,6.80
2023-04-15T06:31:17.000Z,6.77
2023-04-15T06:32:17.000Z,6.76
2023-04-15T06:33:17.000Z,6.81
2023-04-15T06:34:17.000Z,6.77
2023-04-15T06:35:17.000Z,6.80
2023-04-15T06:36:17.000Z,6.79
2023-04-15T06:37:17.000Z,6.81
2023-04-15T06:38:17.000Z,6.81
2023-04-15T06:39:17.000Z,6.83
2023-04-15T06:40:17.000Z,6.79
2023-04-15T06:41:17.000Z,6.80
2023-04-15T06:42:17.000Z,6.84
2023-04-15T06:43:17.000Z,6.81
2023-04-15T06:44:17.000Z,6.84
2023-04-15T06:45:17.000Z,6.89
2023-04-15T06:46:17.000Z,6.90
2023-04-15T06:47:17.000Z,6.86
2023-04-15T06:48:17.000Z,6.87
2023-04-15T06:49:17.000Z,6.91
2023-04-15T06:50:18.000Z,6.86
2023-04-15T06:51:18.000Z,6.87
2023-04-15T06:52:18.000Z,6.89
2023-04-15T06:53:18.000Z,6.91
2023-04-15T06:54:18.000Z,6.91
2023-04-15T06:55:18.000Z,6.86
2023-04-15T06:56:18.000Z,6.91
2023-04-15T06:57:18.000Z,6.91
2023-04-15T07:57:31.000Z,7.34
2023-04-15T07:57:31.000Z,7.29
2023-04-15T07:58:31.000Z,7.37
2023-04-15T07:59:31.000Z,7.34
2023-04-15T08:00:31.000Z,7.38
2023-04-15T08:18:24.000Z,7.55
2023-04-15T08:18:24.000Z,7.50
2023-04-15T08:19:24.000Z,7.53
2023-04-15T08:20:24.000Z,7.52
2023-04-15T08:21:24.000Z,7.53
2023-04-15T08:23:42.000Z,7.53
2023-04-15T08:23:42.000Z,7.50
2023-04-15T08:24:42.000Z,7.53
2023-04-15T08:25:42.000Z,7.56
2023-04-15T08:26:42.000Z,7.58
2023-04-15T08:44:35.000Z,7.72
2023-04-15T08:44:35.000Z,7.74
2023-04-15T08:45:35.000Z,7.69
2023-04-15T08:46:35.000Z,7.78
2023-04-15T08:47:35.000Z,7.72
2023-04-15T08:48:35.000Z,7.79
2023-04-15T08:49:35.000Z,7.81
2023-04-15T08:50:35.000Z,7.84
2023-04-15T08:51:35.000Z,7.85
2023-04-15T08:52:35.000Z,7.90
2023-04-15T09:22:03.000Z,8.29
2023-04-15T09:22:03.000Z,8.22
2023-04-15T09:23:03.000Z,8.30
2023-04-15T09:24:03.000Z,8.30
2023-04-15T09:25:03.000Z,8.33
2023-04-15T09:26:03.000Z,8.30
2023-04-15T09:27:03.000Z,8.32
2023-04-15T09:28:03.000Z,8.35
2023-04-15T09:29:03.000Z,8.37
2023-04-15T09:30:03.000Z,8.36
2023-04-15T09:31:03.000Z,8.37
2023-04-15T09:32:02.000Z,8.40
2023-04-15T09:33:02.000Z,8.39
2023-04-15T09:34:02.000Z,8.39
2023-04-15T09:41:19.000Z,8.53
2023-04-15T09:41:19.000Z,8.48
2023-04-15T09:42:19.000Z,8.50
2023-04-15T09:43:19.000Z,8.54
2023-04-15T09:44:19.000Z,8.55
2023-04-15T10:07:30.000Z,8.75
2023-04-15T10:07:30.000Z,8.76
2023-04-15T10:08:30.000Z,8.79
2023-04-15T10:09:30.000Z,8.83
2023-04-15T10:10:30.000Z,8.81
2023-04-15T10:11:30.000Z,8.84
2023-04-15T10:12:30.000Z,8.83
2023-04-15T10:13:30.000Z,8.81
2023-04-15T10:14:30.000Z,8.84
2023-04-15T10:15:30.000Z,8.87
2023-04-15T10:43:59.000Z,9.04
2023-04-15T10:43:59.000Z,9.10
2023-04-15T10:44:59.000Z,9.16
2023-04-15T10:45:59.000Z,9.12
2023-04-15T10:46:59.000Z,9.15
2023-04-15T10:47:59.000Z,9.16
2023-04-15T10:48:59.000Z,9.18
2023-04-15T10:49:59.000Z,9.20
2023-04-15T10:50:59.000Z,9.18
2023-04-15T10:51:59.000Z,9.25
2023-04-15T11:52:11.000Z,9.78
2023-04-15T11:52:11.000Z,9.78
2023-04-15T11:53:11.000Z,9.79
2023-04-15T11:54:11.000Z,9.76
2023-04-15T11:55:11.000Z,9.78
2023-04-15T13:32:27.000Z,10.03
2023-04-15T13:32:27.000Z,10.00
2023-04-15T13:33:27.000Z,10.03
2023-04-15T13:34:27.000Z,10.07
2023-04-15T13:35:27.000Z,10.01
2023-04-15T13:36:27.000Z,10.04
2023-04-15T13:37:27.000Z,10.04
2023-04-15T13:38:27.000Z,10.10
2023-04-15T13:39:27.000Z,10.06
2023-04-15T13:40:27.000Z,10.00
2023-04-15T13:41:27.000Z,10.04
2023-04-15T13:42:27.000Z,10.03
2023-04-15T13:43:27.000Z,10.04
2023-04-15T13:44:27.000Z,10.09
2023-04-15T13:45:27.000Z,10.06
2023-04-15T13:46:27.000Z,10.03
2023-04-15T13:47:27.000Z,9.99
2023-04-15T13:48:27.000Z,9.97
2023-04-15T13:49:27.000Z,9.97
2023-04-15T13:50:27.000Z,10.01
2023-04-15T13:51:27.000Z,10.07
2023-04-15T13:52:27.000Z,10.06
2023-04-15T13:53:27.000Z,10.03
2023-04-15T13:54:27.000Z,10.06
2023-04-15T13:55:27.000Z,10.06
2023-04-15T13:56:27.000Z,10.07
2023-04-15T13:57:27.000Z,10.06
2023-04-15T13:58:27.000Z,10.06
2023-04-15T13:59:27.000Z,10.10
2023-04-15T14:00:27.000Z,10.09
2023-04-15T14:01:27.000Z,10.07
2023-04-15T14:02:27.000Z,10.10
2023-04-15T14:03:27.000Z,10.14
2023-04-15T14:04:27.000Z,10.14
2023-04-15T14:05:27.000Z,10.10
2023-04-15T14:06:27.000Z,10.12
2023-04-15T14:07:27.000Z,10.14
2023-04-15T14:08:27.000Z,10.12
2023-04-15T14:09:27.000Z,10.14
2023-04-15T14:10:27.000Z,10.22
2023-04-15T14:11:27.000Z,10.18
2023-04-15T14:12:27.000Z,10.14
2023-04-15T14:13:27.000Z,10.14
2023-04-15T14:14:27.000Z,10.18
2023-04-15T14:15:27.000Z,10.21
2023-04-15T14:16:27.000Z,10.21
2023-04-15T14:17:27.000Z,10.17
2023-04-15T14:18:27.000Z,10.17
2023-04-15T14:19:27.000Z,10.15
2023-04-15T14:20:27.000Z,10.12
2023-04-15T14:21:27.000Z,10.10
2023-04-15T14:22:27.000Z,10.15
2023-04-15T14:23:27.000Z,10.10
2023-04-15T14:24:27.000Z,10.07
2023-04-15T14:25:27.000Z,10.01
2023-04-15T14:26:27.000Z,10.00
2023-04-15T14:27:27.000Z,10.03
2023-04-15T14:28:27.000Z,9.99
2023-04-15T14:29:27.000Z,10.00
2023-04-15T14:30:27.000Z,10.07
2023-04-15T14:31:27.000Z,10.00
2023-04-15T14:32:27.000Z,9.99
2023-04-15T14:33:27.000Z,9.99
2023-04-15T14:34:27.000Z,10.03
2023-04-15T14:35:27.000Z,10.06
2023-04-15T14:36:27.000Z,10.10
2023-04-15T14:37:27.000Z,10.10
2023-04-15T14:38:27.000Z,10.10
2023-04-15T14:39:27.000Z,10.07
2023-04-15T14:40:27.000Z,10.07
2023-04-15T14:41:27.000Z,10.07
2023-04-15T14:42:27.000Z,10.06
2023-04-15T14:43:27.000Z,10.04
2023-04-15T14:44:27.000Z,10.07
2023-04-15T14:45:27.000Z,10.10
2023-04-15T14:46:27.000Z,10.06
2023-04-15T14:47:27.000Z,10.06
2023-04-15T14:48:27.000Z,10.04
2023-04-15T14:49:27.000Z,10.00
2023-04-15T14:50:27.000Z,10.09
2023-04-15T14:51:27.000Z,10.06
2023-04-15T14:52:27.000Z,10.09
2023-04-15T14:53:27.000Z,10.10
2023-04-15T14:54:27.000Z,10.14
2023-04-15T14:55:27.000Z,10.12
2023-04-15T14:56:26.000Z,10.12
2023-04-15T14:57:26.000Z,10.10
2023-04-15T14:58:26.000Z,10.07
2023-04-15T14:59:26.000Z,10.07
2023-04-15T15:00:26.000Z,10.12
2023-04-15T15:01:26.000Z,10.10
2023-04-15T15:02:26.000Z,10.12
2023-04-15T15:03:26.000Z,10.10
2023-04-15T15:04:26.000Z,10.09
2023-04-15T15:05:26.000Z,10.09
2023-04-15T15:06:26.000Z,10.09
2023-04-15T15:07:26.000Z,10.10
2023-04-15T15:08:26.000Z,10.10
2023-04-15T15:09:26.000Z,10.10
2023-04-15T15:10:26.000Z,10.18
2023-04-15T15:11:26.000Z,10.15
2023-04-15T15:12:26.000Z,10.12
2023-04-15T15:13:26.000Z,10.15
2023-04-15T15:14:26.000Z,10.10
2023-04-15T15:15:26.000Z,10.12
2023-04-15T15:16:26.000Z,10.12
2023-04-15T15:17:26.000Z,10.15
2023-04-15T15:18:26.000Z,10.19
2023-04-15T15:19:26.000Z,10.24
2023-04-15T15:20:26.000Z,10.22
2023-04-15T15:21:26.000Z,10.25
2023-04-15T15:22:26.000Z,10.25
2023-04-15T15:23:26.000Z,10.19
2023-04-15T15:24:26.000Z,10.24
2023-04-15T15:25:26.000Z,10.17
2023-04-15T15:26:26.000Z,10.19
2023-04-15T15:27:26.000Z,10.19
2023-04-15T15:28:26.000Z,10.21
2023-04-15T15:29:26.000Z,10.21
2023-04-15T15:30:26.000Z,10.19
2023-04-15T15:31:26.000Z,10.15
2023-04-15T15:32:26.000Z,10.15
2023-04-15T15:33:26.000Z,10.18
2023-04-15T15:34:26.000Z,10.15
2023-04-15T15:35:26.000Z,10.15
2023-04-15T15:36:26.000Z,10.17
2023-04-15T15:37:26.000Z,10.18
2023-04-15T15:38:26.000Z,10.21
2023-04-15T15:39:26.000Z,10.22
2023-04-15T15:40:26.000Z,10.22
2023-04-15T15:41:26.000Z,10.30
2023-04-15T15:42:26.000Z,10.28
2023-04-15T15:43:26.000Z,10.30
2023-04-15T15:44:26.000Z,10.34
2023-04-15T15:45:26.000Z,10.30
2023-04-15T15:46:26.000Z,10.33
2023-04-15T15:47:26.000Z,10.33
2023-04-15T15:48:26.000Z,10.32
2023-04-15T15:49:26.000Z,10.34
2023-04-15T15:50:26.000Z,10.42
2023-04-15T15:51:26.000Z,10.37
2023-04-15T15:52:26.000Z,10.43
2023-04-15T15:53:26.000Z,10.53
2023-04-15T15:54:26.000Z,10.51
2023-04-15T15:55:26.000Z,10.44
2023-04-15T15:56:26.000Z,10.39
2023-04-15T15:57:26.000Z,10.43
2023-04-15T15:58:26.000Z,10.37
2023-04-15T15:59:26.000Z,10.43
2023-04-15T16:00:26.000Z,10.40
2023-04-15T16:01:26.000Z,10.42
2023-04-15T16:02:26.000Z,10.42
2023-04-15T16:03:26.000Z,10.44
2023-04-15T16:04:26.000Z,10.44
2023-04-15T16:05:26.000Z,10.39
2023-04-15T16:06:26.000Z,10.42
2023-04-15T16:07:26.000Z,10.37
2023-04-15T16:08:26.000Z,10.40
2023-04-15T16:09:26.000Z,10.34
2023-04-15T16:10:26.000Z,10.33
2023-04-15T16:11:26.000Z,10.33
2023-04-15T16:12:26.000Z,10.36
2023-04-15T16:13:26.000Z,10.36
2023-04-15T16:14:26.000Z,10.39
2023-04-15T16:15:26.000Z,10.36
2023-04-15T16:16:26.000Z,10.36
2023-04-15T16:17:26.000Z,10.36
2023-04-15T16:18:26.000Z,10.40
2023-04-15T16:19:26.000Z,10.36
2023-04-15T16:20:26.000Z,10.34
2023-04-15T16:21:26.000Z,10.33
2023-04-15T16:22:26.000Z,10.33
2023-04-15T16:23:26.000Z,10.33
2023-04-15T16:24:26.000Z,10.33
2023-04-15T16:25:26.000Z,10.36
2023-04-15T16:26:26.000Z,10.36
2023-04-15T16:27:26.000Z,10.34
2023-04-15T16:28:26.000Z,10.33
2023-04-15T16:29:26.000Z,10.30
2023-04-15T16:30:26.000Z,10.33
2023-04-15T16:31:26.000Z,10.26
2023-04-15T16:32:26.000Z,10.25
2023-04-15T16:33:26.000Z,10.26
2023-04-15T16:34:26.000Z,10.24
2023-04-15T16:35:26.000Z,10.22
2023-04-15T16:36:26.000Z,10.24
2023-04-15T16:37:26.000Z,10.21
2023-04-15T16:38:26.000Z,10.18
2023-04-15T16:39:26.000Z,10.22
2023-04-15T16:40:26.000Z,10.22
2023-04-15T16:41:26.000Z,10.22
2023-04-15T16:42:26.000Z,10.22
2023-04-15T16:43:26.000Z,10.24
2023-04-15T16:44:26.000Z,10.24
2023-04-15T16:45:26.000Z,10.28
2023-04-15T16:46:26.000Z,10.25
2023-04-15T16:47:26.000Z,10.26
2023-04-15T16:48:25.000Z,10.22
2023-04-15T16:49:25.000Z,10.21
2023-04-15T16:50:25.000Z,10.24
2023-04-15T16:51:25.000Z,10.19
2023-04-15T16:52:25.000Z,10.21
2023-04-15T16:53:25.000Z,10.21
2023-04-15T16:54:25.000Z,10.22
2023-04-15T16:55:25.000Z,10.21
2023-04-15T16:56:25.000Z,10.25
2023-04-15T16:57:25.000Z,10.24
2023-04-15T16:58:25.000Z,10.24
2023-04-15T16:59:25.000Z,10.22
2023-04-15T17:00:25.000Z,10.21
2023-04-15T17:01:25.000Z,10.22
2023-04-15T17:02:25.000Z,10.22
2023-04-15T17:03:25.000Z,10.17
2023-04-15T17:04:25.000Z,10.19
2023-04-15T17:05:25.000Z,10.21
2023-04-15T17:06:25.000Z,10.22
2023-04-15T17:07:25.000Z,10.21
2023-04-15T17:08:25.000Z,10.19
2023-04-15T17:09:25.000Z,10.18
2023-04-15T17:10:25.000Z,10.17
2023-04-15T17:11:25.000Z,10.19
2023-04-15T17:12:25.000Z,10.18
2023-04-15T17:13:25.000Z,10.12
2023-04-15T17:14:25.000Z,10.14
2023-04-15T17:15:25.000Z,10.09
2023-04-15T17:16:25.000Z,10.07
2023-04-15T17:17:25.000Z,10.06
2023-04-15T17:18:25.000Z,10.06
2023-04-15T17:19:25.000Z,10.07
2023-04-15T17:20:25.000Z,10.07
2023-04-15T17:21:25.000Z,10.03
2023-04-15T17:22:25.000Z,10.06
2023-04-15T17:23:25.000Z,10.00
2023-04-15T17:24:25.000Z,9.99
2023-04-15T17:25:25.000Z,10.03
2023-04-15T17:26:25.000Z,9.99
2023-04-15T17:27:25.000Z,9.99
2023-04-15T17:28:25.000Z,10.01
2023-04-15T17:29:25.000Z,9.97
2023-04-15T17:30:25.000Z,9.99
2023-04-15T17:31:25.000Z,9.94
2023-04-15T17:32:25.000Z,9.96
2023-04-15T17:33:25.000Z,9.93
2023-04-15T17:34:25.000Z,9.94
2023-04-15T17:35:25.000Z,9.94
2023-04-15T17:36:25.000Z,9.93
2023-04-15T17:37:25.000Z,9.91
2023-04-15T17:38:25.000Z,9.93
2023-04-15T17:39:25.000Z,9.93
2023-04-15T17:40:25.000Z,9.89
2023-04-15T17:41:25.000Z,9.89
2023-04-15T17:42:25.000Z,9.88
2023-04-15T17:43:25.000Z,9.88
2023-04-15T17:44:25.000Z,9.93
2023-04-15T17:45:25.000Z,9.89
2023-04-15T17:46:25.000Z,9.86
2023-04-15T17:47:25.000Z,9.85
2023-04-15T17:48:25.000Z,9.89
2023-04-15T17:49:25.000Z,9.86
2023-04-15T17:50:25.000Z,9.86
2023-04-15T17:51:25.000Z,9.85
2023-04-15T17:52:25.000Z,9.85
2023-04-15T17:53:25.000Z,9.83
2023-04-15T17:54:25.000Z,9.82
2023-04-15T17:55:25.000Z,9.85
2023-04-15T17:56:25.000Z,9.81
2023-04-15T17:57:25.000Z,9.79
2023-04-15T17:58:25.000Z,9.79
2023-04-15T17:59:25.000Z,9.78
2023-04-15T18:00:25.000Z,9.81
2023-04-15T18:01:25.000Z,9.81
2023-04-15T18:02:25.000Z,9.81
2023-04-15T18:03:25.000Z,9.79
2023-04-15T18:04:25.000Z,9.79
2023-04-15T18:05:25.000Z,9.76
2023-04-15T18:06:25.000Z,9.79
2023-04-15T18:07:25.000Z,9.78
2023-04-15T18:08:25.000Z,9.78
2023-04-15T18:09:25.000Z,9.78
2023-04-15T18:10:25.000Z,9.79
2023-04-15T18:11:25.000Z,9.75
2023-04-15T18:12:25.000Z,9.75
2023-04-15T18:13:25.000Z,9.73
2023-04-15T18:14:25.000Z,9.70
2023-04-15T18:15:25.000Z,9.75
2023-04-15T18:16:25.000Z,9.71
2023-04-15T18:17:25.000Z,9.71
2023-04-15T18:18:25.000Z,9.70
2023-04-15T18:19:25.000Z,9.68
2023-04-15T18:20:25.000Z,9.68
2023-04-15T18:21:25.000Z,9.67
2023-04-15T18:22:25.000Z,9.66
2023-04-15T18:23:25.000Z,9.66
2023-04-15T18:24:25.000Z,9.66
2023-04-15T18:25:25.000Z,9.63
2023-04-15T18:26:25.000Z,9.63
2023-04-15T18:27:25.000Z,9.64
2023-04-15T18:28:25.000Z,9.63
2023-04-15T18:29:25.000Z,9.61
2023-04-15T18:30:25.000Z,9.63
2023-04-15T18:31:25.000Z,9.64
2023-04-15T18:32:25.000Z,9.63
2023-04-15T18:33:25.000Z,9.63
2023-04-15T18:34:25.000Z,9.64
2023-04-15T18:35:25.000Z,9.61
2023-04-15T18:36:25.000Z,9.64
2023-04-15T18:37:25.000Z,9.58
2023-04-15T18:38:25.000Z,9.63
2023-04-15T18:39:25.000Z,9.60
2023-04-15T18:40:25.000Z,9.58
2023-04-15T18:41:25.000Z,9.60
2023-04-15T18:42:25.000Z,9.57
2023-04-15T18:43:25.000Z,9.60
2023-04-15T18:44:25.000Z,9.57
2023-04-15T18:45:25.000Z,9.53